sensor_id;sensor_type;location;lat;lon;timestamp;P1;durP1;ratioP1;P2;durP2;ratioP2
70369;SDS011;57790;51.356;-2.906;2023-04-30T00:01:15;14.03;;;6.30;;
70369;SDS011;57790;51.356;-2.906;2023-04-30T00:04:15;13.60;;;5.55;;
70369;SDS011;57790;51.356;-2.906;2023-04-30T00:07:15;12.90;;;5.47;;
70369;SDS011;57790;51.356;-2.906;2023-04-30T00:10:16;14.23;;;5.63;;
70369;SDS011;57790;51.356;-2.906;2023-04-30T00:13:16;15.40;;;6.57;;
70369;SDS011;57790;51.356;-2.906;2023-04-30T00:16:17;13.20;;;5.45;;
70369;SDS011;57790;51.356;-2.906;2023-04-30T00:19:18;13.40;;;5.57;;
70369;SDS011;57790;51.356;-2.906;2023-04-30T00:22:18;12.63;;;5.40;;
70369;SDS011;57790;51.356;-2.906;2023-04-30T00:25:19;14.10;;;6.20;;
70369;SDS011;57790;51.356;-2.906;2023-04-30T00:28:20;15.93;;;5.88;;
70369;SDS011;57790;51.356;-2.906;2023-04-30T00:31:20;13.60;;;5.67;;
70369;SDS011;57790;51.356;-2.906;2023-04-30T00:34:20;14.45;;;5.90;;
70369;SDS011;57790;51.356;-2.906;2023-04-30T00:37:21;14.30;;;5.50;;
70369;SDS011;57790;51.356;-2.906;2023-04-30T00:40:21;14.83;;;6.00;;
70369;SDS011;57790;51.356;-2.906;2023-04-30T00:43:22;14.03;;;6.17;;
70369;SDS011;57790;51.356;-2.906;2023-04-30T00:46:22;12.70;;;5.97;;
70369;SDS011;57790;51.356;-2.906;2023-04-30T00:49:22;14.30;;;5.87;;
70369;SDS011;57790;51.356;-2.906;2023-04-30T00:52:23;13.15;;;6.15;;
70369;SDS011;57790;51.356;-2.906;2023-04-30T00:55:23;15.47;;;6.23;;
70369;SDS011;57790;51.356;-2.906;2023-04-30T00:58:24;13.98;;;6.05;;
70369;SDS011;57790;51.356;-2.906;2023-04-30T01:01:25;14.97;;;6.33;;
70369;SDS011;57790;51.356;-2.906;2023-04-30T01:04:27;13.30;;;5.40;;
70369;SDS011;57790;51.356;-2.906;2023-04-30T01:07:28;12.87;;;5.47;;
70369;SDS011;57790;51.356;-2.906;2023-04-30T01:10:31;13.35;;;5.57;;
70369;SDS011;57790;51.356;-2.906;2023-04-30T01:13:44;12.43;;;5.57;;
70369;SDS011;57790;51.356;-2.906;2023-04-30T01:20:20;13.68;;;4.90;;
70369;SDS011;57790;51.356;-2.906;2023-04-30T01:29:41;14.10;;;5.60;;
70369;SDS011;57790;51.356;-2.906;2023-04-30T01:32:42;12.52;;;5.25;;
70369;SDS011;57790;51.356;-2.906;2023-04-30T01:52:11;11.40;;;4.17;;
70369;SDS011;57790;51.356;-2.906;2023-04-30T01:55:19;11.57;;;4.75;;
70369;SDS011;57790;51.356;-2.906;2023-04-30T01:58:23;10.63;;;4.32;;
70369;SDS011;57790;51.356;-2.906;2023-04-30T02:01:25;11.68;;;4.82;;
70369;SDS011;57790;51.356;-2.906;2023-04-30T02:04:30;10.55;;;4.10;;
70369;SDS011;57790;51.356;-2.906;2023-04-30T02:07:38;10.77;;;4.33;;
70369;SDS011;57790;51.356;-2.906;2023-04-30T02:10:43;11.25;;;4.50;;
70369;SDS011;57790;51.356;-2.906;2023-04-30T02:13:44;10.23;;;4.00;;
70369;SDS011;57790;51.356;-2.906;2023-04-30T02:16:44;9.77;;;4.00;;
70369;SDS011;57790;51.356;-2.906;2023-04-30T02:19:45;9.50;;;3.80;;
70369;SDS011;57790;51.356;-2.906;2023-04-30T02:22:45;10.80;;;3.90;;
70369;SDS011;57790;51.356;-2.906;2023-04-30T02:25:46;10.30;;;4.13;;
70369;SDS011;57790;51.356;-2.906;2023-04-30T02:28:47;10.13;;;4.53;;
70369;SDS011;57790;51.356;-2.906;2023-04-30T02:31:47;10.23;;;4.13;;
70369;SDS011;57790;51.356;-2.906;2023-04-30T02:34:48;11.50;;;4.50;;
70369;SDS011;57790;51.356;-2.906;2023-04-30T02:37:48;11.87;;;5.00;;
70369;SDS011;57790;51.356;-2.906;2023-04-30T02:40:49;12.87;;;4.60;;
70369;SDS011;57790;51.356;-2.906;2023-04-30T02:43:49;11.57;;;4.20;;
70369;SDS011;57790;51.356;-2.906;2023-04-30T02:46:50;11.63;;;4.50;;
70369;SDS011;57790;51.356;-2.906;2023-04-30T02:49:50;10.77;;;4.20;;
70369;SDS011;57790;51.356;-2.906;2023-04-30T02:52:51;12.27;;;5.13;;
70369;SDS011;57790;51.356;-2.906;2023-04-30T02:55:51;11.80;;;4.23;;
70369;SDS011;57790;51.356;-2.906;2023-04-30T02:58:52;11.03;;;4.53;;
70369;SDS011;57790;51.356;-2.906;2023-04-30T03:01:52;10.13;;;4.23;;
70369;SDS011;57790;51.356;-2.906;2023-04-30T03:04:53;11.40;;;4.50;;
70369;SDS011;57790;51.356;-2.906;2023-04-30T03:07:53;11.40;;;4.33;;
70369;SDS011;57790;51.356;-2.906;2023-04-30T03:10:54;12.70;;;4.13;;
70369;SDS011;57790;51.356;-2.906;2023-04-30T03:13:54;9.27;;;4.13;;
70369;SDS011;57790;51.356;-2.906;2023-04-30T03:16:54;9.57;;;3.97;;
70369;SDS011;57790;51.356;-2.906;2023-04-30T03:19:55;10.23;;;4.00;;
70369;SDS011;57790;51.356;-2.906;2023-04-30T03:22:55;10.90;;;4.05;;
70369;SDS011;57790;51.356;-2.906;2023-04-30T03:25:56;10.17;;;4.17;;
70369;SDS011;57790;51.356;-2.906;2023-04-30T03:28:56;11.43;;;4.00;;
70369;SDS011;57790;51.356;-2.906;2023-04-30T03:31:56;10.53;;;4.30;;
70369;SDS011;57790;51.356;-2.906;2023-04-30T03:34:57;10.33;;;4.20;;
70369;SDS011;57790;51.356;-2.906;2023-04-30T03:37:57;10.27;;;4.30;;
70369;SDS011;57790;51.356;-2.906;2023-04-30T03:40:57;10.00;;;4.20;;
70369;SDS011;57790;51.356;-2.906;2023-04-30T03:43:58;10.15;;;3.80;;
70369;SDS011;57790;51.356;-2.906;2023-04-30T03:46:58;9.73;;;4.13;;
70369;SDS011;57790;51.356;-2.906;2023-04-30T03:49:59;8.80;;;3.90;;
70369;SDS011;57790;51.356;-2.906;2023-04-30T03:52:59;11.40;;;4.70;;
70369;SDS011;57790;51.356;-2.906;2023-04-30T03:56:00;10.77;;;4.50;;
70369;SDS011;57790;51.356;-2.906;2023-04-30T03:59:01;13.82;;;4.38;;
70369;SDS011;57790;51.356;-2.906;2023-04-30T04:02:01;10.68;;;4.63;;
70369;SDS011;57790;51.356;-2.906;2023-04-30T04:05:02;12.87;;;5.53;;
70369;SDS011;57790;51.356;-2.906;2023-04-30T04:08:03;12.77;;;5.65;;
70369;SDS011;57790;51.356;-2.906;2023-04-30T04:11:03;14.13;;;5.33;;
70369;SDS011;57790;51.356;-2.906;2023-04-30T04:14:04;14.83;;;6.50;;
70369;SDS011;57790;51.356;-2.906;2023-04-30T04:17:04;14.00;;;6.67;;
70369;SDS011;57790;51.356;-2.906;2023-04-30T04:20:05;14.82;;;6.15;;
70369;SDS011;57790;51.356;-2.906;2023-04-30T04:23:06;13.23;;;5.82;;
70369;SDS011;57790;51.356;-2.906;2023-04-30T04:26:06;16.07;;;6.63;;
70369;SDS011;57790;51.356;-2.906;2023-04-30T04:29:07;12.77;;;5.80;;
70369;SDS011;57790;51.356;-2.906;2023-04-30T04:32:08;12.40;;;5.85;;
70369;SDS011;57790;51.356;-2.906;2023-04-30T04:35:09;13.50;;;6.10;;
70369;SDS011;57790;51.356;-2.906;2023-04-30T04:38:09;13.93;;;6.03;;
70369;SDS011;57790;51.356;-2.906;2023-04-30T04:41:10;14.33;;;6.60;;
70369;SDS011;57790;51.356;-2.906;2023-04-30T04:44:10;14.43;;;6.23;;
70369;SDS011;57790;51.356;-2.906;2023-04-30T04:47:11;14.30;;;6.07;;
70369;SDS011;57790;51.356;-2.906;2023-04-30T04:50:11;13.80;;;6.20;;
70369;SDS011;57790;51.356;-2.906;2023-04-30T04:53:12;14.67;;;6.27;;
70369;SDS011;57790;51.356;-2.906;2023-04-30T04:56:13;15.32;;;6.80;;
70369;SDS011;57790;51.356;-2.906;2023-04-30T04:59:13;15.83;;;6.60;;
70369;SDS011;57790;51.356;-2.906;2023-04-30T05:02:14;18.20;;;7.57;;
70369;SDS011;57790;51.356;-2.906;2023-04-30T05:05:14;13.23;;;6.23;;
70369;SDS011;57790;51.356;-2.906;2023-04-30T05:08:15;12.73;;;5.60;;
70369;SDS011;57790;51.356;-2.906;2023-04-30T05:11:15;14.27;;;6.43;;
70369;SDS011;57790;51.356;-2.906;2023-04-30T05:14:16;14.20;;;5.97;;
70369;SDS011;57790;51.356;-2.906;2023-04-30T05:17:16;13.80;;;6.27;;
70369;SDS011;57790;51.356;-2.906;2023-04-30T05:20:17;13.80;;;5.80;;
70369;SDS011;57790;51.356;-2.906;2023-04-30T05:23:17;11.27;;;4.93;;
70369;SDS011;57790;51.356;-2.906;2023-04-30T05:26:17;13.90;;;6.23;;
70369;SDS011;57790;51.356;-2.906;2023-04-30T05:29:18;14.43;;;6.28;;
70369;SDS011;57790;51.356;-2.906;2023-04-30T05:32:18;14.67;;;5.77;;
70369;SDS011;57790;51.356;-2.906;2023-04-30T05:35:19;13.53;;;6.20;;
70369;SDS011;57790;51.356;-2.906;2023-04-30T05:38:19;14.10;;;6.33;;
70369;SDS011;57790;51.356;-2.906;2023-04-30T05:41:19;13.53;;;6.67;;
70369;SDS011;57790;51.356;-2.906;2023-04-30T05:44:20;14.05;;;6.07;;
70369;SDS011;57790;51.356;-2.906;2023-04-30T05:47:21;16.27;;;6.77;;
70369;SDS011;57790;51.356;-2.906;2023-04-30T05:50:21;15.47;;;6.67;;
70369;SDS011;57790;51.356;-2.906;2023-04-30T05:53:21;15.43;;;6.60;;
70369;SDS011;57790;51.356;-2.906;2023-04-30T05:56:22;13.90;;;6.47;;
70369;SDS011;57790;51.356;-2.906;2023-04-30T05:59:23;15.37;;;6.30;;
70369;SDS011;57790;51.356;-2.906;2023-04-30T06:02:24;14.88;;;6.22;;
70369;SDS011;57790;51.356;-2.906;2023-04-30T06:05:25;15.93;;;7.30;;
70369;SDS011;57790;51.356;-2.906;2023-04-30T06:08:26;15.53;;;7.00;;
70369;SDS011;57790;51.356;-2.906;2023-04-30T06:11:27;15.13;;;6.90;;
70369;SDS011;57790;51.356;-2.906;2023-04-30T06:14:29;17.20;;;6.90;;
70369;SDS011;57790;51.356;-2.906;2023-04-30T06:17:30;17.10;;;7.45;;
70369;SDS011;57790;51.356;-2.906;2023-04-30T06:20:30;15.30;;;7.67;;
70369;SDS011;57790;51.356;-2.906;2023-04-30T06:23:30;13.63;;;6.33;;
70369;SDS011;57790;51.356;-2.906;2023-04-30T06:26:31;15.18;;;6.30;;
70369;SDS011;57790;51.356;-2.906;2023-04-30T06:29:32;17.53;;;7.77;;
70369;SDS011;57790;51.356;-2.906;2023-04-30T06:32:32;16.63;;;7.97;;
70369;SDS011;57790;51.356;-2.906;2023-04-30T06:35:32;15.07;;;6.90;;
70369;SDS011;57790;51.356;-2.906;2023-04-30T06:38:33;14.98;;;6.93;;
70369;SDS011;57790;51.356;-2.906;2023-04-30T06:41:33;14.03;;;6.57;;
70369;SDS011;57790;51.356;-2.906;2023-04-30T06:44:34;15.43;;;6.67;;
70369;SDS011;57790;51.356;-2.906;2023-04-30T06:47:34;13.73;;;6.97;;
70369;SDS011;57790;51.356;-2.906;2023-04-30T06:50:35;13.63;;;6.95;;
70369;SDS011;57790;51.356;-2.906;2023-04-30T06:53:42;12.43;;;6.00;;
70369;SDS011;57790;51.356;-2.906;2023-04-30T06:56:43;13.20;;;6.33;;
70369;SDS011;57790;51.356;-2.906;2023-04-30T06:59:44;13.70;;;5.90;;
70369;SDS011;57790;51.356;-2.906;2023-04-30T07:02:44;16.80;;;6.78;;
70369;SDS011;57790;51.356;-2.906;2023-04-30T07:05:46;12.13;;;5.47;;
70369;SDS011;57790;51.356;-2.906;2023-04-30T07:08:47;13.13;;;6.10;;
70369;SDS011;57790;51.356;-2.906;2023-04-30T07:11:47;12.73;;;6.03;;
70369;SDS011;57790;51.356;-2.906;2023-04-30T07:14:48;12.07;;;5.72;;
70369;SDS011;57790;51.356;-2.906;2023-04-30T07:17:49;12.83;;;5.73;;
70369;SDS011;57790;51.356;-2.906;2023-04-30T07:20:49;13.80;;;5.83;;
70369;SDS011;57790;51.356;-2.906;2023-04-30T07:23:49;16.47;;;6.77;;
70369;SDS011;57790;51.356;-2.906;2023-04-30T07:26:50;14.15;;;6.93;;
70369;SDS011;57790;51.356;-2.906;2023-04-30T07:29:50;14.13;;;7.43;;
70369;SDS011;57790;51.356;-2.906;2023-04-30T07:32:51;13.43;;;5.87;;
70369;SDS011;57790;51.356;-2.906;2023-04-30T07:35:52;14.18;;;6.70;;
70369;SDS011;57790;51.356;-2.906;2023-04-30T07:38:53;16.30;;;7.80;;
70369;SDS011;57790;51.356;-2.906;2023-04-30T07:41:53;13.75;;;7.22;;
70369;SDS011;57790;51.356;-2.906;2023-04-30T07:44:54;16.97;;;8.43;;
70369;SDS011;57790;51.356;-2.906;2023-04-30T07:47:54;14.33;;;6.90;;
70369;SDS011;57790;51.356;-2.906;2023-04-30T07:50:54;17.30;;;8.37;;
70369;SDS011;57790;51.356;-2.906;2023-04-30T07:53:55;17.33;;;7.53;;
70369;SDS011;57790;51.356;-2.906;2023-04-30T07:56:56;18.37;;;9.23;;
70369;SDS011;57790;51.356;-2.906;2023-04-30T07:59:56;17.00;;;8.70;;
70369;SDS011;57790;51.356;-2.906;2023-04-30T08:02:57;19.63;;;9.30;;
70369;SDS011;57790;51.356;-2.906;2023-04-30T08:05:59;16.02;;;8.65;;
70369;SDS011;57790;51.356;-2.906;2023-04-30T08:09:00;17.87;;;8.13;;
70369;SDS011;57790;51.356;-2.906;2023-04-30T08:12:00;17.35;;;7.90;;
70369;SDS011;57790;51.356;-2.906;2023-04-30T08:15:04;18.20;;;8.63;;
70369;SDS011;57790;51.356;-2.906;2023-04-30T08:18:06;18.90;;;9.13;;
70369;SDS011;57790;51.356;-2.906;2023-04-30T08:21:07;17.00;;;8.60;;
70369;SDS011;57790;51.356;-2.906;2023-04-30T08:24:07;15.97;;;7.90;;
70369;SDS011;57790;51.356;-2.906;2023-04-30T08:27:07;14.20;;;6.63;;
70369;SDS011;57790;51.356;-2.906;2023-04-30T08:30:08;16.25;;;7.65;;
70369;SDS011;57790;51.356;-2.906;2023-04-30T08:33:08;17.27;;;7.47;;
70369;SDS011;57790;51.356;-2.906;2023-04-30T08:36:09;17.83;;;8.23;;
70369;SDS011;57790;51.356;-2.906;2023-04-30T08:39:10;15.90;;;7.37;;
70369;SDS011;57790;51.356;-2.906;2023-04-30T08:42:11;16.97;;;7.57;;
70369;SDS011;57790;51.356;-2.906;2023-04-30T08:45:13;18.60;;;8.27;;
70369;SDS011;57790;51.356;-2.906;2023-04-30T08:48:13;18.90;;;8.97;;
70369;SDS011;57790;51.356;-2.906;2023-04-30T08:51:15;19.48;;;8.32;;
70369;SDS011;57790;51.356;-2.906;2023-04-30T08:54:16;18.20;;;8.43;;
70369;SDS011;57790;51.356;-2.906;2023-04-30T08:57:17;17.88;;;8.75;;
70369;SDS011;57790;51.356;-2.906;2023-04-30T09:00:17;19.73;;;9.67;;
70369;SDS011;57790;51.356;-2.906;2023-04-30T09:03:18;22.65;;;10.02;;
70369;SDS011;57790;51.356;-2.906;2023-04-30T09:06:21;18.63;;;9.02;;
70369;SDS011;57790;51.356;-2.906;2023-04-30T09:09:26;19.23;;;9.23;;
70369;SDS011;57790;51.356;-2.906;2023-04-30T09:12:30;19.58;;;9.63;;
70369;SDS011;57790;51.356;-2.906;2023-04-30T09:15:31;20.33;;;10.13;;
70369;SDS011;57790;51.356;-2.906;2023-04-30T09:18:37;18.80;;;9.68;;
70369;SDS011;57790;51.356;-2.906;2023-04-30T09:21:38;20.52;;;10.60;;
70369;SDS011;57790;51.356;-2.906;2023-04-30T09:24:45;20.70;;;10.73;;
70369;SDS011;57790;51.356;-2.906;2023-04-30T09:27:48;19.83;;;9.43;;
70369;SDS011;57790;51.356;-2.906;2023-04-30T09:30:48;19.27;;;9.27;;
70369;SDS011;57790;51.356;-2.906;2023-04-30T09:33:49;18.40;;;9.30;;
70369;SDS011;57790;51.356;-2.906;2023-04-30T09:36:53;19.53;;;9.93;;
70369;SDS011;57790;51.356;-2.906;2023-04-30T09:39:54;20.17;;;8.70;;
70369;SDS011;57790;51.356;-2.906;2023-04-30T09:42:59;21.75;;;9.65;;
70369;SDS011;57790;51.356;-2.906;2023-04-30T09:45:59;18.63;;;9.02;;
70369;SDS011;57790;51.356;-2.906;2023-04-30T09:49:01;18.07;;;8.70;;
70369;SDS011;57790;51.356;-2.906;2023-04-30T09:52:03;17.77;;;8.70;;
70369;SDS011;57790;51.356;-2.906;2023-04-30T09:55:04;18.73;;;8.83;;
70369;SDS011;57790;51.356;-2.906;2023-04-30T09:58:05;23.58;;;10.15;;
70369;SDS011;57790;51.356;-2.906;2023-04-30T10:01:07;20.40;;;10.35;;
70369;SDS011;57790;51.356;-2.906;2023-04-30T10:04:10;19.38;;;9.68;;
70369;SDS011;57790;51.356;-2.906;2023-04-30T10:07:18;19.53;;;9.97;;
70369;SDS011;57790;51.356;-2.906;2023-04-30T10:10:20;19.65;;;10.00;;
70369;SDS011;57790;51.356;-2.906;2023-04-30T10:13:21;17.77;;;9.07;;
70369;SDS011;57790;51.356;-2.906;2023-04-30T10:16:29;19.70;;;9.07;;
70369;SDS011;57790;51.356;-2.906;2023-04-30T10:19:47;18.85;;;9.13;;
70369;SDS011;57790;51.356;-2.906;2023-04-30T10:22:51;20.27;;;9.73;;
70369;SDS011;57790;51.356;-2.906;2023-04-30T10:25:52;20.95;;;9.65;;
70369;SDS011;57790;51.356;-2.906;2023-04-30T10:28:53;20.23;;;9.37;;
70369;SDS011;57790;51.356;-2.906;2023-04-30T10:31:57;18.98;;;9.15;;
70369;SDS011;57790;51.356;-2.906;2023-04-30T10:35:10;18.33;;;9.27;;
70369;SDS011;57790;51.356;-2.906;2023-04-30T10:38:21;20.33;;;9.15;;
70369;SDS011;57790;51.356;-2.906;2023-04-30T10:41:25;18.97;;;8.97;;
70369;SDS011;57790;51.356;-2.906;2023-04-30T10:44:27;17.10;;;8.43;;
70369;SDS011;57790;51.356;-2.906;2023-04-30T10:47:27;17.27;;;7.77;;
70369;SDS011;57790;51.356;-2.906;2023-04-30T10:50:29;17.67;;;9.02;;
70369;SDS011;57790;51.356;-2.906;2023-04-30T10:53:30;18.83;;;9.07;;
70369;SDS011;57790;51.356;-2.906;2023-04-30T10:56:31;16.08;;;7.88;;
70369;SDS011;57790;51.356;-2.906;2023-04-30T10:59:33;18.30;;;8.15;;
70369;SDS011;57790;51.356;-2.906;2023-04-30T11:02:44;18.73;;;9.40;;
70369;SDS011;57790;51.356;-2.906;2023-04-30T11:05:46;19.35;;;8.45;;
70369;SDS011;57790;51.356;-2.906;2023-04-30T11:08:46;19.67;;;9.53;;
70369;SDS011;57790;51.356;-2.906;2023-04-30T11:11:47;18.70;;;8.63;;
70369;SDS011;57790;51.356;-2.906;2023-04-30T11:15:06;18.52;;;8.43;;
70369;SDS011;57790;51.356;-2.906;2023-04-30T11:18:12;19.58;;;9.48;;
70369;SDS011;57790;51.356;-2.906;2023-04-30T11:21:12;20.33;;;9.77;;
70369;SDS011;57790;51.356;-2.906;2023-04-30T11:24:13;19.43;;;9.50;;
70369;SDS011;57790;51.356;-2.906;2023-04-30T11:27:23;20.23;;;9.57;;
70369;SDS011;57790;51.356;-2.906;2023-04-30T11:30:25;19.77;;;9.50;;
70369;SDS011;57790;51.356;-2.906;2023-04-30T11:33:31;19.52;;;9.40;;
70369;SDS011;57790;51.356;-2.906;2023-04-30T11:36:32;17.48;;;8.45;;
70369;SDS011;57790;51.356;-2.906;2023-04-30T11:39:34;18.23;;;8.37;;
70369;SDS011;57790;51.356;-2.906;2023-04-30T11:42:39;19.17;;;9.43;;
70369;SDS011;57790;51.356;-2.906;2023-04-30T11:45:43;18.15;;;9.23;;
70369;SDS011;57790;51.356;-2.906;2023-04-30T11:48:43;17.70;;;9.27;;
70369;SDS011;57790;51.356;-2.906;2023-04-30T11:51:47;19.63;;;9.23;;
70369;SDS011;57790;51.356;-2.906;2023-04-30T11:54:48;16.33;;;8.15;;
70369;SDS011;57790;51.356;-2.906;2023-04-30T11:57:49;15.63;;;8.10;;
70369;SDS011;57790;51.356;-2.906;2023-04-30T12:00:54;15.35;;;8.55;;
70369;SDS011;57790;51.356;-2.906;2023-04-30T12:03:59;17.60;;;8.07;;
70369;SDS011;57790;51.356;-2.906;2023-04-30T12:06:59;16.30;;;8.00;;
70369;SDS011;57790;51.356;-2.906;2023-04-30T12:10:01;16.70;;;8.35;;
70369;SDS011;57790;51.356;-2.906;2023-04-30T12:13:01;16.17;;;7.77;;
70369;SDS011;57790;51.356;-2.906;2023-04-30T12:16:02;17.00;;;7.67;;
70369;SDS011;57790;51.356;-2.906;2023-04-30T12:19:02;16.77;;;8.15;;
70369;SDS011;57790;51.356;-2.906;2023-04-30T12:22:03;16.70;;;8.37;;
70369;SDS011;57790;51.356;-2.906;2023-04-30T12:25:07;16.27;;;8.33;;
70369;SDS011;57790;51.356;-2.906;2023-04-30T12:28:12;15.90;;;7.35;;
70369;SDS011;57790;51.356;-2.906;2023-04-30T12:31:13;17.03;;;7.83;;
70369;SDS011;57790;51.356;-2.906;2023-04-30T12:34:13;16.97;;;8.80;;
70369;SDS011;57790;51.356;-2.906;2023-04-30T12:37:14;16.03;;;8.00;;
70369;SDS011;57790;51.356;-2.906;2023-04-30T12:40:17;16.65;;;8.35;;
70369;SDS011;57790;51.356;-2.906;2023-04-30T12:43:18;17.13;;;7.70;;
70369;SDS011;57790;51.356;-2.906;2023-04-30T12:46:25;16.20;;;8.20;;
70369;SDS011;57790;51.356;-2.906;2023-04-30T12:49:27;15.05;;;7.68;;
70369;SDS011;57790;51.356;-2.906;2023-04-30T12:52:31;16.05;;;7.90;;
70369;SDS011;57790;51.356;-2.906;2023-04-30T12:55:32;16.92;;;8.15;;
70369;SDS011;57790;51.356;-2.906;2023-04-30T12:58:38;15.53;;;7.67;;
70369;SDS011;57790;51.356;-2.906;2023-04-30T13:01:43;15.05;;;7.32;;
70369;SDS011;57790;51.356;-2.906;2023-04-30T13:04:44;16.80;;;8.50;;
70369;SDS011;57790;51.356;-2.906;2023-04-30T13:07:45;17.23;;;8.40;;
70369;SDS011;57790;51.356;-2.906;2023-04-30T13:10:45;17.07;;;8.47;;
70369;SDS011;57790;51.356;-2.906;2023-04-30T13:13:46;18.88;;;8.90;;
70369;SDS011;57790;51.356;-2.906;2023-04-30T13:16:47;20.27;;;8.93;;
70369;SDS011;57790;51.356;-2.906;2023-04-30T13:19:48;17.08;;;7.80;;
70369;SDS011;57790;51.356;-2.906;2023-04-30T13:22:49;18.30;;;8.40;;
70369;SDS011;57790;51.356;-2.906;2023-04-30T13:25:50;17.60;;;7.77;;
70369;SDS011;57790;51.356;-2.906;2023-04-30T13:28:51;14.95;;;7.72;;
70369;SDS011;57790;51.356;-2.906;2023-04-30T13:31:51;17.50;;;7.97;;
70369;SDS011;57790;51.356;-2.906;2023-04-30T13:34:51;18.23;;;9.13;;
70369;SDS011;57790;51.356;-2.906;2023-04-30T13:37:54;17.15;;;8.57;;
70369;SDS011;57790;51.356;-2.906;2023-04-30T13:40:54;17.45;;;8.25;;
70369;SDS011;57790;51.356;-2.906;2023-04-30T13:43:55;16.83;;;8.07;;
70369;SDS011;57790;51.356;-2.906;2023-04-30T13:46:56;18.50;;;8.53;;
70369;SDS011;57790;51.356;-2.906;2023-04-30T13:49:56;15.80;;;7.37;;
70369;SDS011;57790;51.356;-2.906;2023-04-30T13:52:57;17.48;;;8.68;;
70369;SDS011;57790;51.356;-2.906;2023-04-30T13:55:58;17.90;;;8.20;;
70369;SDS011;57790;51.356;-2.906;2023-04-30T13:58:58;15.97;;;7.17;;
70369;SDS011;57790;51.356;-2.906;2023-04-30T14:01:59;15.03;;;7.33;;
70369;SDS011;57790;51.356;-2.906;2023-04-30T14:04:59;16.13;;;7.27;;
70369;SDS011;57790;51.356;-2.906;2023-04-30T14:08:02;16.45;;;7.03;;
70369;SDS011;57790;51.356;-2.906;2023-04-30T14:11:03;19.20;;;8.60;;
70369;SDS011;57790;51.356;-2.906;2023-04-30T14:14:04;17.53;;;8.90;;
70369;SDS011;57790;51.356;-2.906;2023-04-30T14:17:06;18.10;;;8.02;;
70369;SDS011;57790;51.356;-2.906;2023-04-30T14:20:06;15.50;;;7.07;;
70369;SDS011;57790;51.356;-2.906;2023-04-30T14:23:08;18.90;;;8.03;;
70369;SDS011;57790;51.356;-2.906;2023-04-30T14:26:08;17.45;;;8.10;;
70369;SDS011;57790;51.356;-2.906;2023-04-30T14:29:09;15.90;;;7.83;;
70369;SDS011;57790;51.356;-2.906;2023-04-30T14:32:09;15.07;;;7.23;;
70369;SDS011;57790;51.356;-2.906;2023-04-30T14:35:12;15.52;;;7.63;;
70369;SDS011;57790;51.356;-2.906;2023-04-30T14:38:13;20.23;;;7.57;;
70369;SDS011;57790;51.356;-2.906;2023-04-30T14:41:14;17.00;;;8.02;;
70369;SDS011;57790;51.356;-2.906;2023-04-30T14:44:14;16.47;;;7.27;;
70369;SDS011;57790;51.356;-2.906;2023-04-30T14:47:15;15.03;;;7.23;;
70369;SDS011;57790;51.356;-2.906;2023-04-30T14:50:15;14.90;;;7.50;;
70369;SDS011;57790;51.356;-2.906;2023-04-30T14:53:15;16.30;;;7.23;;
70369;SDS011;57790;51.356;-2.906;2023-04-30T14:56:16;17.80;;;7.72;;
70369;SDS011;57790;51.356;-2.906;2023-04-30T14:59:16;16.07;;;7.70;;
70369;SDS011;57790;51.356;-2.906;2023-04-30T15:02:17;20.30;;;8.27;;
70369;SDS011;57790;51.356;-2.906;2023-04-30T15:05:17;15.57;;;6.90;;
70369;SDS011;57790;51.356;-2.906;2023-04-30T15:08:18;17.02;;;7.55;;
70369;SDS011;57790;51.356;-2.906;2023-04-30T15:11:18;15.53;;;7.00;;
70369;SDS011;57790;51.356;-2.906;2023-04-30T15:14:18;15.10;;;6.80;;
70369;SDS011;57790;51.356;-2.906;2023-04-30T15:17:20;15.73;;;6.60;;
70369;SDS011;57790;51.356;-2.906;2023-04-30T15:20:20;15.52;;;7.65;;
70369;SDS011;57790;51.356;-2.906;2023-04-30T15:23:20;14.73;;;6.63;;
70369;SDS011;57790;51.356;-2.906;2023-04-30T15:26:21;15.07;;;6.72;;
70369;SDS011;57790;51.356;-2.906;2023-04-30T15:29:22;17.17;;;7.77;;
70369;SDS011;57790;51.356;-2.906;2023-04-30T15:32:22;14.60;;;7.17;;
70369;SDS011;57790;51.356;-2.906;2023-04-30T15:35:23;14.38;;;6.95;;
70369;SDS011;57790;51.356;-2.906;2023-04-30T15:38:23;15.70;;;6.80;;
70369;SDS011;57790;51.356;-2.906;2023-04-30T15:41:24;14.00;;;6.90;;
70369;SDS011;57790;51.356;-2.906;2023-04-30T15:44:24;14.30;;;6.77;;
70369;SDS011;57790;51.356;-2.906;2023-04-30T15:47:24;15.80;;;7.03;;
70369;SDS011;57790;51.356;-2.906;2023-04-30T15:50:25;14.57;;;6.90;;
70369;SDS011;57790;51.356;-2.906;2023-04-30T15:53:26;14.27;;;6.65;;
70369;SDS011;57790;51.356;-2.906;2023-04-30T15:56:27;15.37;;;6.73;;
70369;SDS011;57790;51.356;-2.906;2023-04-30T15:59:27;14.50;;;6.45;;
70369;SDS011;57790;51.356;-2.906;2023-04-30T16:02:28;13.27;;;6.07;;
70369;SDS011;57790;51.356;-2.906;2023-04-30T16:05:29;14.15;;;6.03;;
70369;SDS011;57790;51.356;-2.906;2023-04-30T16:08:29;13.40;;;6.07;;
70369;SDS011;57790;51.356;-2.906;2023-04-30T16:11:30;14.53;;;6.23;;
70369;SDS011;57790;51.356;-2.906;2023-04-30T16:14:31;14.37;;;6.00;;
70369;SDS011;57790;51.356;-2.906;2023-04-30T16:17:31;14.53;;;6.17;;
70369;SDS011;57790;51.356;-2.906;2023-04-30T16:20:31;13.50;;;5.85;;
70369;SDS011;57790;51.356;-2.906;2023-04-30T16:23:32;11.83;;;5.27;;
70369;SDS011;57790;51.356;-2.906;2023-04-30T16:26:32;13.33;;;5.63;;
70369;SDS011;57790;51.356;-2.906;2023-04-30T16:29:36;14.02;;;5.70;;
70369;SDS011;57790;51.356;-2.906;2023-04-30T16:32:36;13.17;;;5.57;;
70369;SDS011;57790;51.356;-2.906;2023-04-30T16:35:36;12.60;;;5.70;;
70369;SDS011;57790;51.356;-2.906;2023-04-30T16:38:37;11.63;;;5.37;;
70369;SDS011;57790;51.356;-2.906;2023-04-30T16:41:37;11.20;;;5.00;;
70369;SDS011;57790;51.356;-2.906;2023-04-30T16:44:37;11.13;;;4.70;;
70369;SDS011;57790;51.356;-2.906;2023-04-30T16:47:38;10.63;;;4.43;;
70369;SDS011;57790;51.356;-2.906;2023-04-30T16:50:39;11.48;;;4.65;;
70369;SDS011;57790;51.356;-2.906;2023-04-30T16:53:39;12.63;;;4.47;;
70369;SDS011;57790;51.356;-2.906;2023-04-30T16:56:40;9.80;;;4.43;;
70369;SDS011;57790;51.356;-2.906;2023-04-30T16:59:40;9.33;;;4.40;;
70369;SDS011;57790;51.356;-2.906;2023-04-30T17:02:41;9.27;;;3.83;;
70369;SDS011;57790;51.356;-2.906;2023-04-30T17:05:45;11.38;;;4.15;;
70369;SDS011;57790;51.356;-2.906;2023-04-30T17:08:45;11.83;;;4.07;;
70369;SDS011;57790;51.356;-2.906;2023-04-30T17:11:46;10.82;;;4.00;;
70369;SDS011;57790;51.356;-2.906;2023-04-30T17:14:46;10.87;;;4.20;;
70369;SDS011;57790;51.356;-2.906;2023-04-30T17:17:46;9.50;;;4.13;;
70369;SDS011;57790;51.356;-2.906;2023-04-30T17:20:47;12.57;;;4.40;;
70369;SDS011;57790;51.356;-2.906;2023-04-30T17:23:48;9.90;;;4.43;;
70369;SDS011;57790;51.356;-2.906;2023-04-30T17:26:48;11.73;;;4.40;;
70369;SDS011;57790;51.356;-2.906;2023-04-30T17:29:50;11.18;;;4.13;;
70369;SDS011;57790;51.356;-2.906;2023-04-30T17:32:50;10.40;;;4.20;;
70369;SDS011;57790;51.356;-2.906;2023-04-30T17:35:51;12.50;;;4.40;;
70369;SDS011;57790;51.356;-2.906;2023-04-30T17:38:52;9.97;;;3.93;;
70369;SDS011;57790;51.356;-2.906;2023-04-30T17:41:52;8.65;;;4.03;;
70369;SDS011;57790;51.356;-2.906;2023-04-30T17:44:53;9.80;;;4.10;;
70369;SDS011;57790;51.356;-2.906;2023-04-30T17:47:53;8.93;;;3.73;;
70369;SDS011;57790;51.356;-2.906;2023-04-30T17:50:53;11.10;;;4.17;;
70369;SDS011;57790;51.356;-2.906;2023-04-30T17:53:54;11.32;;;4.55;;
70369;SDS011;57790;51.356;-2.906;2023-04-30T17:56:58;11.33;;;4.30;;
70369;SDS011;57790;51.356;-2.906;2023-04-30T17:59:59;10.73;;;4.28;;
70369;SDS011;57790;51.356;-2.906;2023-04-30T18:02:59;11.53;;;4.23;;
70369;SDS011;57790;51.356;-2.906;2023-04-30T18:05:59;9.93;;;4.10;;